Time;durP1;ratioP1;P1;durP2;ratioP2;P2;SDS_P1;SDS_P2;PMS_P1;PMS_P2;Temp;Humidity;BMP_temperature;BMP_pressure;BME280_temperature;BME280_humidity;BME280_pressure;Samples;Min_cycle;Max_cycle;Signal;HPM_P1;HPM_P2
2024/02/25 00:01:17;;;;;;;0.10;0.10;;;5.70;99.90;;;;;;5078079;28;20036;-81
2024/02/25 00:03:43;;;;;;;0.10;0.10;;;5.70;99.90;;;;;;5084110;28;20111;-82
2024/02/25 00:06:09;;;;;;;0.95;0.95;;;5.70;99.90;;;;;;5083388;28;20088;-81
2024/02/25 00:08:34;;;;;;;0.10;0.10;;;5.70;99.90;;;;;;5073327;28;20032;-82
2024/02/25 00:11:00;;;;;;;0.10;0.10;;;5.70;99.90;;;;;;5084074;28;20522;-81
2024/02/25 00:13:26;;;;;;;0.10;0.10;;;5.70;99.90;;;;;;5082170;28;20033;-80
2024/02/25 00:15:52;;;;;;;0.10;0.10;;;5.80;99.90;;;;;;5070294;28;20036;-80
2024/02/25 00:18:17;;;;;;;0.10;0.10;;;5.80;99.90;;;;;;5080524;28;20047;-80
2024/02/25 00:20:43;;;;;;;0.10;0.10;;;5.70;99.90;;;;;;5076646;28;20035;-80
2024/02/25 00:23:09;;;;;;;0.00;0.00;;;5.80;99.90;;;;;;5071572;28;20421;-80
2024/02/25 00:25:37;;;;;;;0.10;0.10;;;5.80;99.90;;;;;;5080176;28;20563;-80
2024/02/25 00:28:04;;;;;;;0.10;0.10;;;5.80;99.90;;;;;;5086429;28;20047;-80
2024/02/25 00:30:30;;;;;;;0.10;0.10;;;5.70;99.90;;;;;;5071941;28;20436;-81
2024/02/25 00:32:56;;;;;;;0.10;0.10;;;5.70;99.90;;;;;;5084134;28;20451;-80
2024/02/25 00:35:21;;;;;;;0.10;0.10;;;5.70;99.90;;;;;;5078726;28;20024;-80
2024/02/25 00:37:47;;;;;;;0.10;0.10;;;5.70;99.90;;;;;;5082415;28;20388;-80
2024/02/25 00:40:14;;;;;;;0.10;0.10;;;5.70;99.90;;;;;;5078347;28;20024;-80
2024/02/25 00:42:40;;;;;;;0.10;0.10;;;5.70;99.90;;;;;;5088027;28;20028;-80
2024/02/25 00:45:06;;;;;;;0.05;0.05;;;5.80;99.90;;;;;;5076067;28;21939;-81
2024/02/25 00:47:32;;;;;;;0.10;0.10;;;5.80;99.90;;;;;;5084346;28;20773;-80
2024/02/25 00:49:58;;;;;;;0.10;0.10;;;5.70;99.90;;;;;;5085519;28;21269;-81
2024/02/25 00:52:25;;;;;;;0.10;0.10;;;5.80;99.90;;;;;;5087270;28;20657;-81
2024/02/25 00:54:50;;;;;;;0.10;0.10;;;5.80;99.90;;;;;;5079919;28;20106;-80
2024/02/25 00:57:16;;;;;;;0.10;0.10;;;5.80;99.90;;;;;;5082168;28;20194;-80
2024/02/25 00:59:42;;;;;;;0.10;0.10;;;5.80;99.90;;;;;;5082590;28;20060;-80
2024/02/25 01:02:08;;;;;;;0.10;0.10;;;5.80;99.90;;;;;;5084523;28;20031;-81
2024/02/25 01:04:33;;;;;;;0.10;0.10;;;5.80;99.90;;;;;;5083697;28;20023;-80
2024/02/25 01:06:59;;;;;;;0.10;0.10;;;5.90;99.90;;;;;;5080066;28;20016;-80
2024/02/25 01:09:25;;;;;;;0.10;0.10;;;5.80;99.90;;;;;;5078201;28;20041;-80
2024/02/25 01:11:52;;;;;;;0.10;0.10;;;5.80;99.90;;;;;;5080609;28;20042;-80
2024/02/25 01:14:18;;;;;;;0.10;0.10;;;5.80;99.90;;;;;;5075586;28;20055;-80
2024/02/25 01:16:44;;;;;;;0.10;0.10;;;5.80;99.90;;;;;;5079792;28;20186;-81
2024/02/25 01:19:10;;;;;;;0.10;0.10;;;5.80;99.90;;;;;;5080579;28;20111;-82
2024/02/25 01:21:35;;;;;;;0.10;0.10;;;5.80;99.90;;;;;;5077944;28;20032;-81
2024/02/25 01:24:02;;;;;;;0.10;0.10;;;5.80;99.90;;;;;;5083405;28;20028;-81
2024/02/25 01:26:28;;;;;;;0.10;0.10;;;5.70;99.90;;;;;;5079188;28;20032;-82
2024/02/25 01:28:54;;;;;;;0.85;0.85;;;5.70;99.90;;;;;;5074761;28;20094;-81
2024/02/25 01:31:21;;;;;;;0.43;0.43;;;5.70;99.90;;;;;;5075077;28;20129;-81
2024/02/25 01:33:47;;;;;;;0.10;0.10;;;5.70;99.90;;;;;;5074549;28;20040;-81
2024/02/25 01:36:12;;;;;;;0.10;0.10;;;5.70;99.90;;;;;;5083451;28;20020;-82
2024/02/25 01:38:38;;;;;;;0.10;0.10;;;5.70;99.90;;;;;;5077533;28;20056;-82
2024/02/25 01:41:04;;;;;;;0.10;0.10;;;5.80;99.90;;;;;;5081999;28;20043;-82
2024/02/25 01:43:30;;;;;;;0.30;0.30;;;5.80;99.90;;;;;;5085016;28;20067;-82
2024/02/25 01:45:55;;;;;;;0.10;0.10;;;5.70;99.90;;;;;;5079438;28;20158;-82
2024/02/25 01:48:21;;;;;;;0.10;0.10;;;5.70;99.90;;;;;;5078307;28;20032;-82
2024/02/25 01:50:48;;;;;;;0.10;0.10;;;5.80;99.90;;;;;;5081837;28;20128;-82
2024/02/25 01:53:15;;;;;;;;;;;5.70;99.90;;;;;;5073439;28;20104;-82
2024/02/25 01:55:45;;;;;;;0.10;0.10;;;5.70;99.90;;;;;;5078733;28;19911;-82
2024/02/25 01:58:12;;;;;;;0.10;0.10;;;5.70;99.90;;;;;;5080357;28;20660;-82
2024/02/25 02:00:39;;;;;;;0.10;0.10;;;5.70;99.90;;;;;;5073711;28;20055;-81
2024/02/25 02:03:04;;;;;;;0.20;0.20;;;5.70;99.90;;;;;;5079192;28;20055;-81
2024/02/25 02:05:30;;;;;;;0.10;0.10;;;5.80;99.90;;;;;;5075612;28;20033;-81
2024/02/25 02:07:56;;;;;;;0.10;0.10;;;5.70;99.90;;;;;;5079536;28;20036;-81
2024/02/25 02:10:22;;;;;;;0.10;0.10;;;5.70;99.90;;;;;;5072153;28;20027;-81
2024/02/25 02:12:48;;;;;;;0.10;0.10;;;5.80;99.90;;;;;;5076000;28;20028;-82
2024/02/25 02:15:15;;;;;;;0.10;0.10;;;5.80;99.90;;;;;;5080519;28;20043;-81
2024/02/25 02:17:42;;;;;;;0.10;0.10;;;5.80;99.90;;;;;;5076484;28;20020;-81
2024/02/25 02:20:11;;;;;;;0.10;0.10;;;5.70;99.90;;;;;;5080673;28;20059;-81
2024/02/25 02:22:41;;;;;;;0.10;0.10;;;5.70;99.90;;;;;;5081413;28;20024;-80
2024/02/25 02:25:08;;;;;;;0.10;0.10;;;5.70;99.90;;;;;;5076499;28;20032;-81
2024/02/25 02:27:37;;;;;;;0.10;0.10;;;5.70;99.90;;;;;;5081541;28;20028;-82
2024/02/25 02:30:04;;;;;;;0.10;0.10;;;5.80;99.90;;;;;;5074136;28;20027;-81
2024/02/25 02:32:29;;;;;;;0.10;0.10;;;5.80;99.90;;;;;;5081408;28;20562;-81
2024/02/25 02:34:55;;;;;;;0.10;0.10;;;5.80;99.90;;;;;;5078456;28;20055;-81
2024/02/25 02:37:21;;;;;;;0.10;0.10;;;5.80;99.90;;;;;;5081533;28;20694;-81
2024/02/25 02:39:47;;;;;;;0.10;0.10;;;5.70;99.90;;;;;;5078718;28;20032;-80
2024/02/25 02:42:12;;;;;;;0.00;0.00;;;5.80;99.90;;;;;;5078858;28;20030;-81
2024/02/25 02:44:39;;;;;;;0.10;0.10;;;5.80;99.90;;;;;;5079926;28;20020;-80
2024/02/25 02:47:05;;;;;;;0.10;0.10;;;5.80;99.90;;;;;;5078343;28;20029;-80
2024/02/25 02:49:31;;;;;;;0.10;0.10;;;5.80;99.90;;;;;;5082069;28;20032;-80
2024/02/25 02:51:58;;;;;;;0.00;0.00;;;5.70;99.90;;;;;;5082486;28;20067;-80
2024/02/25 02:54:25;;;;;;;0.10;0.10;;;5.70;99.90;;;;;;5082139;28;20032;-80
2024/02/25 02:56:50;;;;;;;0.10;0.10;;;5.70;99.90;;;;;;5082263;28;20162;-81
2024/02/25 02:59:16;;;;;;;0.10;0.10;;;5.70;99.90;;;;;;5095046;28;20380;-82
2024/02/25 03:01:42;;;;;;;0.10;0.10;;;5.70;99.90;;;;;;5080967;28;20043;-84
2024/02/25 03:04:08;;;;;;;0.10;0.10;;;5.80;99.90;;;;;;5075892;28;20028;-83
2024/02/25 03:06:34;;;;;;;0.10;0.10;;;5.70;99.90;;;;;;5081017;28;20149;-83
2024/02/25 03:08:59;;;;;;;0.10;0.10;;;5.70;99.90;;;;;;5079471;28;20123;-83
2024/02/25 03:11:25;;;;;;;0.10;0.10;;;5.70;99.90;;;;;;5084634;28;20020;-82
2024/02/25 03:13:51;;;;;;;0.10;0.10;;;5.80;99.90;;;;;;5083078;28;20624;-82
2024/02/25 03:16:16;;;;;;;0.10;0.10;;;5.70;99.90;;;;;;5086566;28;20051;-82
2024/02/25 03:18:42;;;;;;;0.40;0.40;;;5.80;99.90;;;;;;5076474;28;20043;-82
2024/02/25 03:21:08;;;;;;;0.10;0.10;;;5.80;99.90;;;;;;5079019;28;20562;-82
2024/02/25 03:23:35;;;;;;;0.10;0.10;;;5.80;99.90;;;;;;5080427;28;20278;-82
2024/02/25 03:26:01;;;;;;;0.10;0.10;;;5.80;99.90;;;;;;5081232;28;20039;-82
2024/02/25 03:28:27;;;;;;;0.10;0.10;;;5.70;99.90;;;;;;5082194;28;20028;-82
2024/02/25 03:30:53;;;;;;;5.50;1.45;;;5.80;99.90;;;;;;5086449;28;20111;-81
2024/02/25 03:33:18;;;;;;;0.10;0.10;;;5.70;99.90;;;;;;5085267;28;20035;-82
2024/02/25 03:35:44;;;;;;;0.38;0.38;;;5.80;99.90;;;;;;5079511;28;20029;-81
2024/02/25 03:38:10;;;;;;;0.10;0.10;;;5.80;99.90;;;;;;5087855;28;20039;-81
2024/02/25 03:40:36;;;;;;;0.10;0.10;;;5.80;99.90;;;;;;5081683;28;20032;-81
2024/02/25 03:43:02;;;;;;;0.10;0.10;;;5.80;99.90;;;;;;5086046;28;20032;-81
2024/02/25 03:45:28;;;;;;;0.03;0.03;;;5.70;99.90;;;;;;5077637;28;20027;-83
2024/02/25 03:47:53;;;;;;;0.10;0.10;;;5.80;99.90;;;;;;5084312;28;20042;-82
2024/02/25 03:50:19;;;;;;;0.10;0.10;;;5.70;99.90;;;;;;5083209;28;20946;-82
2024/02/25 03:52:45;;;;;;;0.20;0.20;;;5.80;99.90;;;;;;5078145;28;20016;-82
2024/02/25 03:55:11;;;;;;;0.10;0.10;;;5.80;99.90;;;;;;5081370;28;20027;-81
2024/02/25 03:57:37;;;;;;;0.10;0.10;;;5.80;99.90;;;;;;5089918;28;20559;-82
2024/02/25 04:00:04;;;;;;;0.10;0.10;;;5.80;99.90;;;;;;5080663;28;20312;-82
2024/02/25 04:02:30;;;;;;;0.10;0.10;;;5.80;99.90;;;;;;5081086;28;20032;-82
2024/02/25 04:04:56;;;;;;;0.10;0.10;;;5.80;99.90;;;;;;5081965;28;20039;-82
2024/02/25 04:07:22;;;;;;;0.10;0.10;;;5.80;99.90;;;;;;5077120;28;20613;-82
2024/02/25 04:09:47;;;;;;;0.10;0.10;;;5.80;99.90;;;;;;5076191;28;20035;-83
2024/02/25 04:12:13;;;;;;;0.32;0.32;;;5.80;99.90;;;;;;5080879;28;20026;-84
2024/02/25 04:14:39;;;;;;;0.25;0.25;;;5.70;99.90;;;;;;5076498;28;20530;-83
2024/02/25 04:17:05;;;;;;;0.10;0.10;;;5.70;99.90;;;;;;5076865;28;20088;-83
2024/02/25 04:19:31;;;;;;;0.10;0.10;;;5.70;99.90;;;;;;5079037;28;20884;-83
2024/02/25 04:21:56;;;;;;;0.03;0.03;;;5.70;99.90;;;;;;5080052;28;20036;-83
2024/02/25 04:24:22;;;;;;;0.10;0.10;;;5.50;99.90;;;;;;5081686;28;20059;-83
2024/02/25 04:26:48;;;;;;;0.10;0.10;;;5.60;99.90;;;;;;5073719;28;20025;-83
2024/02/25 04:29:14;;;;;;;0.10;0.10;;;5.70;99.90;;;;;;5077166;28;20039;-82
2024/02/25 04:31:45;;;;;;;0.10;0.10;;;5.70;99.90;;;;;;5073545;28;20724;-82
2024/02/25 04:34:12;;;;;;;0.10;0.10;;;5.70;99.90;;;;;;5086892;28;20024;-83
2024/02/25 04:36:39;;;;;;;0.10;0.10;;;5.80;99.90;;;;;;5073891;28;20512;-83
2024/02/25 04:39:05;;;;;;;0.10;0.10;;;5.70;99.90;;;;;;5078641;28;20040;-83
2024/02/25 04:41:31;;;;;;;0.10;0.10;;;5.70;99.90;;;;;;5082767;28;20028;-83
2024/02/25 04:43:57;;;;;;;0.10;0.10;;;5.80;99.90;;;;;;5086798;28;20462;-82
2024/02/25 04:46:23;;;;;;;0.10;0.10;;;5.80;99.90;;;;;;5079570;28;20271;-82
2024/02/25 04:48:49;;;;;;;0.10;0.10;;;5.90;99.90;;;;;;5081257;28;20033;-82
2024/02/25 04:51:15;;;;;;;0.10;0.10;;;5.90;99.90;;;;;;5082188;28;20025;-82
2024/02/25 04:53:41;;;;;;;0.10;0.10;;;5.80;99.90;;;;;;5080894;28;20060;-80
2024/02/25 04:56:06;;;;;;;0.10;0.10;;;5.50;99.90;;;;;;5083813;28;20048;-81
2024/02/25 04:58:32;;;;;;;0.10;0.10;;;5.60;99.90;;;;;;5083068;28;20055;-80
2024/02/25 05:00:58;;;;;;;0.10;0.10;;;5.50;99.90;;;;;;5077223;28;20029;-80
2024/02/25 05:03:24;;;;;;;0.10;0.10;;;5.60;99.90;;;;;;5073861;28;20028;-83
2024/02/25 05:05:50;;;;;;;0.10;0.10;;;5.50;99.90;;;;;;5082260;28;20110;-83
2024/02/25 05:08:16;;;;;;;0.10;0.10;;;5.60;99.90;;;;;;5072569;28;20143;-82
2024/02/25 05:10:42;;;;;;;0.20;0.20;;;5.50;99.90;;;;;;5076667;28;20170;-81
2024/02/25 05:13:08;;;;;;;0.10;0.10;;;5.50;99.90;;;;;;5077125;28;20035;-84
2024/02/25 05:15:34;;;;;;;0.10;0.10;;;5.50;99.90;;;;;;5076065;28;20024;-82
2024/02/25 05:18:01;;;;;;;0.10;0.10;;;5.50;99.90;;;;;;5080294;28;20028;-83
2024/02/25 05:20:27;;;;;;;0.10;0.10;;;5.40;99.90;;;;;;5079496;28;20024;-82
2024/02/25 05:22:54;;;;;;;0.10;0.10;;;5.50;99.90;;;;;;5081691;28;20047;-81
2024/02/25 05:25:20;;;;;;;0.00;0.00;;;5.40;99.90;;;;;;5084928;28;20020;-81
2024/02/25 05:27:46;;;;;;;0.10;0.10;;;5.40;99.90;;;;;;5076997;28;20037;-80
2024/02/25 05:30:13;;;;;;;0.10;0.10;;;5.40;99.90;;;;;;5077113;28;20024;-81
2024/02/25 05:32:38;;;;;;;0.10;0.10;;;5.40;99.90;;;;;;5076441;28;20043;-82
2024/02/25 05:35:06;;;;;;;0.10;0.10;;;5.40;99.90;;;;;;5085869;28;20031;-82
2024/02/25 05:37:32;;;;;;;0.10;0.10;;;5.50;99.90;;;;;;5079780;28;20027;-82
2024/02/25 05:39:58;;;;;;;0.10;0.10;;;5.60;99.90;;;;;;5077526;28;20395;-81
2024/02/25 05:42:23;;;;;;;0.10;0.10;;;5.60;99.90;;;;;;5076497;28;20127;-81
2024/02/25 05:44:51;;;;;;;0.10;0.10;;;5.60;99.90;;;;;;5080456;28;20028;-81
2024/02/25 05:47:17;;;;;;;0.10;0.10;;;5.50;99.90;;;;;;5081183;28;20039;-82
2024/02/25 05:49:43;;;;;;;0.10;0.10;;;5.60;99.90;;;;;;5083758;28;20487;-82
2024/02/25 05:52:08;;;;;;;0.10;0.10;;;5.70;99.90;;;;;;5079058;28;20028;-81
2024/02/25 05:54:34;;;;;;;0.10;0.10;;;5.60;99.90;;;;;;5083623;28;20052;-81
2024/02/25 05:57:00;;;;;;;0.10;0.10;;;5.60;99.90;;;;;;5086226;28;20036;-82
2024/02/25 05:59:25;;;;;;;0.10;0.10;;;5.60;99.90;;;;;;5084627;28;20072;-83
2024/02/25 06:01:51;;;;;;;0.10;0.10;;;5.70;99.90;;;;;;5086418;28;20031;-81
2024/02/25 06:04:19;;;;;;;0.10;0.10;;;5.60;99.90;;;;;;5082970;28;20394;-82
2024/02/25 06:06:54;;;;;;;0.10;0.10;;;5.60;99.90;;;;;;5073644;28;20708;-80
2024/02/25 06:09:21;;;;;;;0.10;0.10;;;5.70;99.90;;;;;;5083973;28;20030;-81
2024/02/25 06:11:48;;;;;;;0.10;0.10;;;5.70;99.90;;;;;;5071718;28;20060;-80
2024/02/25 06:14:14;;;;;;;;;;;5.80;99.90;;;;;;5074226;28;20044;-82
2024/02/25 06:16:40;;;;;;;0.10;0.10;;;5.70;99.90;;;;;;5079393;28;19943;-81
2024/02/25 06:19:06;;;;;;;0.10;0.10;;;5.70;99.90;;;;;;5077169;28;20056;-81
2024/02/25 06:21:32;;;;;;;0.10;0.10;;;5.70;99.90;;;;;;5083023;28;20028;-82
2024/02/25 06:23:58;;;;;;;0.10;0.10;;;5.80;99.90;;;;;;5087840;28;20613;-81
2024/02/25 06:26:23;;;;;;;0.10;0.10;;;5.80;99.90;;;;;;5086460;28;20032;-81
2024/02/25 06:28:49;;;;;;;0.10;0.10;;;5.80;99.90;;;;;;5083519;28;20043;-82
2024/02/25 06:31:15;;;;;;;0.10;0.10;;;5.80;99.90;;;;;;5079771;28;20028;-81
2024/02/25 06:33:41;;;;;;;0.10;0.10;;;5.80;99.90;;;;;;5087810;28;20020;-81
2024/02/25 06:36:17;;;;;;;0.10;0.10;;;5.80;99.90;;;;;;5089817;28;20514;-81
2024/02/25 06:38:42;;;;;;;0.10;0.10;;;5.80;99.90;;;;;;5078174;28;20031;-81
2024/02/25 06:41:17;;;;;;;0.10;0.10;;;5.80;99.90;;;;;;5085665;28;20028;-82
2024/02/25 06:43:43;;;;;;;0.10;0.10;;;5.80;99.90;;;;;;5086276;28;20012;-82
2024/02/25 06:46:08;;;;;;;0.10;0.10;;;5.80;99.90;;;;;;5084599;28;20039;-81
2024/02/25 06:48:34;;;;;;;0.10;0.10;;;5.80;99.90;;;;;;5083697;28;20032;-80
2024/02/25 06:51:00;;;;;;;0.05;0.05;;;5.70;99.90;;;;;;5092451;28;20419;-83
2024/02/25 06:53:27;;;;;;;0.10;0.10;;;5.80;99.90;;;;;;5087443;28;20020;-83
2024/02/25 06:55:52;;;;;;;1.98;1.85;;;5.80;99.90;;;;;;5092321;28;20031;-81
2024/02/25 06:58:18;;;;;;;0.10;0.10;;;5.80;99.90;;;;;;5084975;28;20419;-83
2024/02/25 07:00:44;;;;;;;0.10;0.10;;;5.80;99.90;;;;;;5085846;28;20042;-81
2024/02/25 07:03:09;;;;;;;0.10;0.10;;;5.80;99.90;;;;;;5083030;28;20551;-80
2024/02/25 07:05:35;;;;;;;0.10;0.10;;;5.80;99.90;;;;;;5088905;28;20051;-82
2024/02/25 07:08:01;;;;;;;0.10;0.10;;;5.80;99.90;;;;;;5087329;28;20135;-79
2024/02/25 07:10:26;;;;;;;0.10;0.10;;;5.90;99.90;;;;;;5077676;28;20033;-81
2024/02/25 07:12:52;;;;;;;0.10;0.10;;;5.80;99.90;;;;;;5079511;28;20040;-80
2024/02/25 07:15:18;;;;;;;0.10;0.10;;;5.90;99.90;;;;;;5081565;28;20024;-78
2024/02/25 07:17:46;;;;;;;0.10;0.10;;;5.80;99.90;;;;;;5075905;28;20039;-79
2024/02/25 07:20:12;;;;;;;0.10;0.10;;;5.90;99.90;;;;;;5088525;28;20117;-78
2024/02/25 07:22:37;;;;;;;0.10;0.10;;;5.90;99.90;;;;;;5077972;28;20065;-80
2024/02/25 07:25:03;;;;;;;0.10;0.10;;;5.90;99.90;;;;;;5082866;28;20027;-79
2024/02/25 07:27:29;;;;;;;0.30;0.30;;;6.10;99.90;;;;;;5081522;28;20028;-81
2024/02/25 07:29:54;;;;;;;0.70;0.70;;;6.10;99.90;;;;;;5080462;28;20033;-84
2024/02/25 07:32:20;;;;;;;0.15;0.15;;;6.10;99.90;;;;;;5074470;28;20024;-83
2024/02/25 07:34:46;;;;;;;0.10;0.10;;;6.10;99.90;;;;;;5078597;28;20051;-86
2024/02/25 07:37:11;;;;;;;0.10;0.10;;;6.00;99.90;;;;;;5086625;28;20020;-86
2024/02/25 07:39:38;;;;;;;0.10;0.10;;;6.10;99.90;;;;;;5080172;28;20119;-87
2024/02/25 07:42:04;;;;;;;0.10;0.10;;;6.00;99.90;;;;;;5083611;28;20504;-84
2024/02/25 07:44:29;;;;;;;0.10;0.10;;;5.90;99.90;;;;;;5077702;28;20036;-84
2024/02/25 07:46:55;;;;;;;0.10;0.10;;;6.00;99.90;;;;;;5075599;28;20029;-85
2024/02/25 07:49:21;;;;;;;0.10;0.10;;;6.00;99.90;;;;;;5077599;28;20038;-83
2024/02/25 07:51:46;;;;;;;0.10;0.10;;;6.00;99.90;;;;;;5085097;28;20062;-85
2024/02/25 07:54:12;;;;;;;0.52;0.52;;;6.00;99.90;;;;;;5079452;28;20115;-86
2024/02/25 07:56:38;;;;;;;0.00;0.00;;;6.00;99.90;;;;;;5082539;28;20061;-86
2024/02/25 07:59:03;;;;;;;0.10;0.10;;;6.10;99.90;;;;;;5074062;28;20531;-86
2024/02/25 08:01:29;;;;;;;0.10;0.10;;;6.10;99.90;;;;;;5070478;28;20060;-87
2024/02/25 08:03:55;;;;;;;0.10;0.10;;;6.20;99.90;;;;;;5078067;28;20081;-87
2024/02/25 08:06:27;;;;;;;0.10;0.10;;;6.10;99.90;;;;;;5075877;28;20043;-86
2024/02/25 08:08:54;;;;;;;0.25;0.25;;;6.10;99.90;;;;;;5074616;28;20032;-85
2024/02/25 08:11:20;;;;;;;0.10;0.10;;;6.20;99.90;;;;;;5071012;28;20033;-86
2024/02/25 08:13:45;;;;;;;0.10;0.10;;;6.10;99.90;;;;;;5078855;28;20025;-87
2024/02/25 08:16:11;;;;;;;0.10;0.10;;;6.20;99.90;;;;;;5074968;28;20135;-88
2024/02/25 08:18:37;;;;;;;0.10;0.10;;;6.20;99.90;;;;;;5069746;28;20510;-82
2024/02/25 08:21:03;;;;;;;0.10;0.10;;;6.20;99.90;;;;;;5095440;28;20103;-80
2024/02/25 08:23:28;;;;;;;0.23;0.23;;;6.20;99.90;;;;;;5069739;28;20104;-79
2024/02/25 08:25:54;;;;;;;0.10;0.10;;;6.20;99.90;;;;;;5068590;28;20508;-82
2024/02/25 08:28:20;;;;;;;0.10;0.10;;;6.20;99.90;;;;;;5073780;28;20029;-81
2024/02/25 08:30:46;;;;;;;0.10;0.10;;;6.30;99.90;;;;;;5076133;28;20054;-81
2024/02/25 08:33:12;;;;;;;0.25;0.25;;;6.30;99.90;;;;;;5077185;28;20098;-79
2024/02/25 08:35:38;;;;;;;0.10;0.10;;;6.10;99.90;;;;;;5070001;28;20024;-80
2024/02/25 08:38:03;;;;;;;0.10;0.10;;;6.00;99.90;;;;;;5069826;28;20031;-81
2024/02/25 08:40:31;;;;;;;0.10;0.10;;;5.80;99.90;;;;;;5068385;28;20092;-80
2024/02/25 08:42:56;;;;;;;0.10;0.10;;;5.70;99.90;;;;;;5069422;28;20024;-80
2024/02/25 08:45:23;;;;;;;0.10;0.10;;;5.30;99.90;;;;;;5067576;28;20075;-80
2024/02/25 08:47:49;;;;;;;0.10;0.10;;;5.20;99.90;;;;;;5067549;28;20024;-79
2024/02/25 08:50:14;;;;;;;0.10;0.10;;;5.20;99.90;;;;;;5078564;28;20093;-79
2024/02/25 08:52:40;;;;;;;0.10;0.10;;;5.20;99.90;;;;;;5073734;28;20106;-79
2024/02/25 08:55:07;;;;;;;0.10;0.10;;;5.00;99.90;;;;;;5072223;28;20665;-79
2024/02/25 08:57:33;;;;;;;0.10;0.10;;;5.10;99.90;;;;;;5076639;28;20044;-79
2024/02/25 08:59:59;;;;;;;1.17;1.17;;;5.20;99.90;;;;;;5071839;28;20024;-79
2024/02/25 09:02:25;;;;;;;0.10;0.10;;;5.10;99.90;;;;;;5072973;28;20032;-80
2024/02/25 09:04:51;;;;;;;0.10;0.10;;;5.00;99.90;;;;;;5074871;28;20027;-79
2024/02/25 09:07:17;;;;;;;0.10;0.10;;;5.30;99.90;;;;;;5074531;28;20016;-79
2024/02/25 09:09:43;;;;;;;0.10;0.10;;;5.30;99.90;;;;;;5068187;28;20031;-80
2024/02/25 09:12:13;;;;;;;1.77;0.65;;;5.20;99.90;;;;;;5070046;28;20407;-80
2024/02/25 09:14:40;;;;;;;0.10;0.10;;;5.20;99.90;;;;;;5078152;28;20150;-79
2024/02/25 09:17:06;;;;;;;0.10;0.10;;;5.40;99.90;;;;;;5082497;28;20043;-79
2024/02/25 09:19:31;;;;;;;0.20;0.20;;;5.40;99.90;;;;;;5080814;28;20036;-80
2024/02/25 09:21:57;;;;;;;0.10;0.10;;;5.50;99.90;;;;;;5072098;28;20420;-79
2024/02/25 09:24:25;;;;;;;0.10;0.10;;;5.40;99.90;;;;;;5072982;28;20051;-82
2024/02/25 09:26:50;;;;;;;0.10;0.10;;;5.20;99.90;;;;;;5075847;28;20040;-80
2024/02/25 09:29:17;;;;;;;0.10;0.10;;;5.30;99.90;;;;;;5076045;28;20028;-79
2024/02/25 09:31:43;;;;;;;0.10;0.10;;;5.40;99.90;;;;;;5082384;28;20063;-79
2024/02/25 09:34:11;;;;;;;0.10;0.10;;;5.20;99.90;;;;;;5073445;28;20032;-78
2024/02/25 09:36:37;;;;;;;0.10;0.10;;;5.20;99.90;;;;;;5070767;28;20082;-79
2024/02/25 09:39:03;;;;;;;0.10;0.10;;;5.30;99.90;;;;;;5074728;28;20036;-82
2024/02/25 09:41:37;;;;;;;0.10;0.10;;;5.20;99.90;;;;;;5073553;28;20689;-81
2024/02/25 09:44:03;;;;;;;0.10;0.10;;;5.20;99.90;;;;;;5075805;28;20035;-83
2024/02/25 09:46:34;;;;;;;0.10;0.10;;;5.30;99.90;;;;;;5075096;28;20795;-80
2024/02/25 09:49:02;;;;;;;0.10;0.10;;;5.20;99.90;;;;;;5072694;28;20035;-81
2024/02/25 09:51:29;;;;;;;0.10;0.10;;;5.20;99.90;;;;;;5072721;28;20583;-81
2024/02/25 09:53:55;;;;;;;0.10;0.10;;;5.20;99.90;;;;;;5072958;28;20034;-80
2024/02/25 09:56:22;;;;;;;0.10;0.10;;;5.30;99.90;;;;;;5080070;28;20116;-80
2024/02/25 09:58:48;;;;;;;0.10;0.10;;;5.30;99.90;;;;;;5075945;28;20047;-80
2024/02/25 10:01:16;;;;;;;0.10;0.10;;;5.20;99.90;;;;;;5072808;28;20590;-84
2024/02/25 10:03:42;;;;;;;0.10;0.10;;;5.10;99.90;;;;;;5077791;28;20032;-80
2024/02/25 10:06:08;;;;;;;0.10;0.10;;;5.10;99.90;;;;;;5076213;28;20050;-84
2024/02/25 10:08:50;;;;;;;0.10;0.10;;;5.30;99.90;;;;;;5076579;28;20040;-81
2024/02/25 10:11:17;;;;;;;0.10;0.10;;;5.20;99.90;;;;;;5075211;28;20039;-81
2024/02/25 10:13:45;;;;;;;0.10;0.10;;;5.30;99.90;;;;;;5079765;28;20956;-86
2024/02/25 10:16:17;;;;;;;0.10;0.10;;;5.30;99.90;;;;;;5083331;28;20092;-80
2024/02/25 10:18:44;;;;;;;0.10;0.10;;;5.30;99.90;;;;;;5070845;28;20112;-81
2024/02/25 10:21:10;;;;;;;0.10;0.10;;;5.30;99.90;;;;;;5075438;28;20036;-82
2024/02/25 10:23:36;;;;;;;0.10;0.10;;;5.30;99.90;;;;;;5069952;28;20032;-81
2024/02/25 10:26:17;;;;;;;0.10;0.10;;;5.20;99.90;;;;;;5073296;28;20073;-80
2024/02/25 10:28:43;;;;;;;0.10;0.10;;;5.30;99.90;;;;;;5077236;28;20036;-83
2024/02/25 10:31:15;;;;;;;0.52;0.52;;;5.40;99.90;;;;;;5076761;28;20028;-82
2024/02/25 10:33:46;;;;;;;0.10;0.10;;;5.40;99.90;;;;;;5073635;28;20017;-83
2024/02/25 10:36:13;;;;;;;0.10;0.10;;;5.60;99.90;;;;;;5069786;28;20031;-82
2024/02/25 10:38:45;;;;;;;2.00;1.90;;;5.50;99.90;;;;;;5077360;28;20039;-81
2024/02/25 10:41:13;;;;;;;0.10;0.10;;;5.40;99.90;;;;;;5064894;28;20036;-83
2024/02/25 10:43:39;;;;;;;;;;;5.30;99.90;;;;;;5071407;28;20088;-82
2024/02/25 10:46:40;;;;;;;0.10;0.10;;;5.30;99.90;;;;;;5077919;28;19916;-81
2024/02/25 10:49:06;;;;;;;0.10;0.10;;;5.20;99.90;;;;;;5074581;28;20040;-83
2024/02/25 10:51:35;;;;;;;0.10;0.10;;;5.20;99.90;;;;;;5075568;28;20030;-82
2024/02/25 10:54:02;;;;;;;0.10;0.10;;;5.10;99.90;;;;;;5071162;28;20085;-83
2024/02/25 10:56:29;;;;;;;0.10;0.10;;;5.10;99.90;;;;;;5083579;28;20085;-83
2024/02/25 10:58:56;;;;;;;0.10;0.10;;;5.10;99.90;;;;;;5084076;28;20119;-82
2024/02/25 11:01:24;;;;;;;;;;;5.10;99.90;;;;;;5086017;28;20081;-84
2024/02/25 11:03:50;;;;;;;0.45;0.45;;;5.20;99.90;;;;;;5077702;28;19926;-82
2024/02/25 11:06:33;;;;;;;0.10;0.10;;;5.20;99.90;;;;;;5085099;28;20073;-85
2024/02/25 11:09:12;;;;;;;0.10;0.10;;;5.20;99.90;;;;;;5080528;28;20096;-85
2024/02/25 11:11:43;;;;;;;0.10;0.10;;;5.20;99.90;;;;;;5083591;28;20029;-83
2024/02/25 11:14:15;;;;;;;0.10;0.10;;;5.10;99.90;;;;;;5078369;28;20165;-83
2024/02/25 11:16:48;;;;;;;0.10;0.10;;;5.10;99.90;;;;;;5081934;28;20024;-86
2024/02/25 11:19:15;;;;;;;0.10;0.10;;;5.20;99.90;;;;;;5083810;28;20036;-82
2024/02/25 11:21:41;;;;;;;;;;;5.20;99.90;;;;;;5080181;28;20116;-82
2024/02/25 11:24:12;;;;;;;0.10;0.10;;;5.10;99.90;;;;;;5084710;28;19979;-81
2024/02/25 11:26:38;;;;;;;0.10;0.10;;;5.00;99.90;;;;;;5088640;28;20678;-84
2024/02/25 11:29:14;;;;;;;0.10;0.10;;;5.20;99.90;;;;;;5081216;28;20055;-80
2024/02/25 11:31:59;;;;;;;0.10;0.10;;;5.20;99.90;;;;;;5085347;28;20544;-81
2024/02/25 11:34:37;;;;;;;0.10;0.10;;;5.10;99.90;;;;;;5077366;28;20028;-82
2024/02/25 11:37:05;;;;;;;0.10;0.10;;;5.10;99.90;;;;;;5082356;28;20024;-81
2024/02/25 11:39:34;;;;;;;0.10;0.10;;;5.10;99.90;;;;;;5079802;28;20092;-81
2024/02/25 11:42:01;;;;;;;0.10;0.10;;;5.10;99.90;;;;;;5079038;28;20086;-78
2024/02/25 11:44:30;;;;;;;;;;;5.20;99.90;;;;;;5089245;28;20483;-78
2024/02/25 11:46:57;;;;;;;0.10;0.10;;;5.30;99.90;;;;;;5088655;28;19912;-81
2024/02/25 11:49:25;;;;;;;0.10;0.10;;;5.30;99.90;;;;;;5082208;28;20032;-80
2024/02/25 11:51:51;;;;;;;0.10;0.10;;;5.20;99.90;;;;;;5079484;28;20473;-80
2024/02/25 11:54:17;;;;;;;0.10;0.10;;;5.20;99.90;;;;;;5088402;28;20039;-80
2024/02/25 11:56:43;;;;;;;0.10;0.10;;;5.30;99.90;;;;;;5073998;28;20039;-82
2024/02/25 11:59:09;;;;;;;0.10;0.10;;;5.30;99.90;;;;;;5087186;28;20044;-82
2024/02/25 12:01:37;;;;;;;0.10;0.10;;;5.30;99.90;;;;;;5079235;28;20076;-81
2024/02/25 12:04:03;;;;;;;0.10;0.10;;;5.30;99.90;;;;;;5089144;28;20024;-81
2024/02/25 12:06:32;;;;;;;0.10;0.10;;;5.40;99.90;;;;;;5082571;28;20036;-80
2024/02/25 12:08:59;;;;;;;0.10;0.10;;;5.30;99.90;;;;;;5082813;28;20040;-81
2024/02/25 12:11:26;;;;;;;0.10;0.10;;;5.50;99.90;;;;;;5081817;28;20024;-82
2024/02/25 12:14:14;;;;;;;0.10;0.10;;;5.40;99.90;;;;;;5079434;28;20024;-82
2024/02/25 12:16:40;;;;;;;0.10;0.10;;;5.40;99.90;;;;;;5079488;28;20035;-80
2024/02/25 12:19:05;;;;;;;0.40;0.40;;;5.50;99.90;;;;;;5079836;28;20028;-77
2024/02/25 12:21:31;;;;;;;18.75;4.57;;;5.50;99.90;;;;;;5082608;28;20028;-76
2024/02/25 12:24:03;;;;;;;0.20;0.20;;;5.60;99.90;;;;;;5086766;28;20114;-79
2024/02/25 12:26:30;;;;;;;0.20;0.20;;;5.60;99.90;;;;;;5080326;28;20029;-78
2024/02/25 12:29:08;;;;;;;0.20;0.20;;;5.70;99.90;;;;;;5083468;28;20032;-78
2024/02/25 12:31:34;;;;;;;0.10;0.10;;;5.60;99.90;;;;;;5082911;28;20027;-78
2024/02/25 12:34:00;;;;;;;0.00;0.00;;;5.70;99.90;;;;;;5079941;28;20107;-78
2024/02/25 12:36:27;;;;;;;0.00;0.00;;;5.60;99.90;;;;;;5078347;28;20119;-77
2024/02/25 12:38:53;;;;;;;0.00;0.00;;;5.70;99.90;;;;;;5075371;28;20044;-79
2024/02/25 12:41:20;;;;;;;;;;;5.90;99.90;;;;;;5077470;28;20495;-78
2024/02/25 12:43:51;;;;;;;0.00;0.00;;;5.80;99.90;;;;;;5083249;28;19918;-78
2024/02/25 12:46:19;;;;;;;0.00;0.00;;;5.70;99.90;;;;;;5075495;28;20109;-80
2024/02/25 12:48:44;;;;;;;0.00;0.00;;;5.70;99.90;;;;;;5078568;28;20127;-80
2024/02/25 12:51:15;;;;;;;0.00;0.00;;;5.80;99.90;;;;;;5086475;28;20108;-80
2024/02/25 12:53:41;;;;;;;0.00;0.00;;;5.80;99.90;;;;;;5076945;28;20029;-81
2024/02/25 12:56:08;;;;;;;0.00;0.00;;;5.90;99.90;;;;;;5080377;28;20035;-79